createdAt,value
2023-04-01T00:00:30.733Z,59.67
2023-04-01T00:03:20.363Z,60.89
2023-04-01T00:06:07.035Z,60.89
2023-04-01T00:08:56.584Z,61.76
2023-04-01T00:11:49.003Z,62.06
2023-04-01T00:14:40.713Z,62.19
2023-04-01T00:17:30.642Z,62.35
2023-04-01T00:20:19.032Z,62.61
2023-04-01T00:23:11.551Z,62.76
2023-04-01T00:26:04.946Z,62.20
2023-04-01T00:28:52.481Z,62.72
2023-04-01T00:31:46.269Z,62.57
2023-04-01T00:34:35.242Z,62.66
2023-04-01T00:37:27.228Z,63.20
2023-04-01T00:40:30.189Z,63.39
2023-04-01T00:43:17.605Z,62.29
2023-04-01T00:46:07.285Z,63.82
2023-04-01T00:48:56.217Z,63.20
2023-04-01T00:51:45.340Z,62.34
2023-04-01T00:54:34.332Z,62.88
2023-04-01T00:57:25.401Z,62.57
2023-04-01T01:00:16.447Z,63.05
2023-04-01T01:03:07.037Z,63.18
2023-04-01T01:06:16.934Z,63.91
2023-04-01T01:09:19.319Z,63.60
2023-04-01T01:12:18.816Z,63.85
2023-04-01T01:15:14.301Z,63.97
2023-04-01T01:18:08.254Z,63.14
2023-04-01T01:21:38.733Z,63.46
2023-04-01T01:24:57.477Z,61.55
2023-04-01T01:27:49.153Z,61.25
2023-04-01T01:30:56.928Z,63.02
2023-04-01T01:34:07.746Z,63.15
2023-04-01T01:37:04.184Z,59.23
2023-04-01T01:40:03.300Z,58.39
2023-04-01T01:42:58.416Z,61.67
2023-04-01T01:45:49.512Z,61.63
2023-04-01T01:48:40.926Z,60.19
2023-04-01T01:51:31.176Z,59.59
2023-04-01T01:54:23.454Z,61.21
2023-04-01T01:57:17.227Z,61.42
2023-04-01T02:00:15.701Z,58.48
2023-04-01T02:03:05.861Z,58.04
2023-04-01T02:06:00.565Z,58.29
2023-04-01T02:08:53.935Z,58.29
2023-04-01T02:11:46.642Z,57.98
2023-04-01T02:14:44.827Z,58.01
2023-04-01T02:17:37.009Z,57.81
2023-04-01T02:20:27.983Z,58.29
2023-04-01T02:23:17.677Z,59.98
2023-04-01T02:26:08.406Z,59.90
2023-04-01T02:29:02.472Z,60.96
2023-04-01T02:31:52.629Z,60.89
2023-04-01T02:34:41.484Z,61.28
2023-04-01T02:37:28.569Z,60.33
2023-04-01T02:40:16.927Z,59.58
2023-04-01T02:43:05.157Z,59.23
2023-04-01T02:45:53.868Z,59.38
2023-04-01T02:48:40.080Z,59.16
2023-04-01T02:51:27.278Z,57.89
2023-04-01T02:54:14.352Z,58.31
2023-04-01T02:57:01.482Z,56.80
2023-04-01T02:59:53.874Z,57.92
2023-04-01T03:02:49.627Z,58.40
2023-04-01T03:05:40.010Z,58.46
2023-04-01T03:08:29.696Z,60.13
2023-04-01T03:11:18.961Z,59.44
2023-04-01T03:14:09.457Z,59.18
2023-04-01T03:16:57.063Z,59.73
2023-04-01T03:19:48.144Z,60.49
2023-04-01T03:22:37.721Z,60.43
2023-04-01T03:25:27.105Z,60.61
2023-04-01T03:28:18.807Z,60.94
2023-04-01T03:31:09.355Z,61.69
2023-04-01T03:34:01.557Z,60.96
2023-04-01T03:36:55.361Z,61.79
2023-04-01T03:39:44.626Z,60.47
2023-04-01T03:42:39.449Z,61.02
2023-04-01T03:45:24.898Z,61.39
2023-04-01T03:48:11.964Z,61.05
2023-04-01T03:51:02.542Z,61.42
2023-04-01T03:53:51.823Z,61.01
2023-04-01T03:56:40.471Z,61.24
2023-04-01T03:59:27.664Z,59.52
2023-04-01T04:02:16.686Z,59.18
2023-04-01T04:05:08.263Z,59.13
2023-04-01T04:07:59.183Z,57.73
2023-04-01T04:10:47.799Z,57.67
2023-04-01T04:13:37.113Z,57.78
2023-04-01T04:16:24.184Z,56.90
2023-04-01T04:19:12.127Z,57.06
2023-04-01T04:22:05.146Z,54.78
2023-04-01T04:24:56.799Z,55.84
2023-04-01T04:27:48.576Z,56.09
2023-04-01T04:30:35.904Z,55.73
2023-04-01T04:33:25.032Z,55.68
2023-04-01T04:36:13.300Z,56.20
2023-04-01T04:39:03.942Z,54.92
2023-04-01T04:41:51.216Z,54.35
2023-04-01T04:44:41.938Z,53.67
2023-04-01T04:47:30.898Z,54.00
2023-04-01T04:50:19.322Z,53.48
2023-04-01T04:53:09.959Z,54.20
2023-04-01T04:56:00.212Z,53.11
2023-04-01T04:58:51.227Z,53.09
2023-04-01T05:01:42.167Z,52.50
2023-04-01T05:04:29.707Z,53.19
2023-04-01T05:07:18.428Z,52.68
2023-04-01T05:10:06.795Z,53.48
2023-04-01T05:12:51.862Z,53.68
2023-04-01T05:15:37.790Z,53.39
2023-04-01T05:18:31.684Z,54.38
2023-04-01T05:21:21.629Z,55.18
2023-04-01T05:24:13.912Z,54.34
2023-04-01T05:27:04.727Z,53.75
2023-04-01T05:29:57.936Z,54.01
2023-04-01T05:32:45.645Z,54.84
2023-04-01T05:35:39.186Z,53.84
2023-04-01T05:38:28.046Z,53.70
2023-04-01T05:41:13.472Z,54.72
2023-04-01T05:44:02.986Z,53.72
2023-04-01T05:46:52.673Z,52.99
2023-04-01T05:49:38.097Z,51.76
2023-04-01T05:52:28.202Z,51.13
2023-04-01T05:55:16.676Z,51.62
2023-04-01T05:58:05.706Z,50.35
2023-04-01T06:01:08.060Z,49.69
2023-04-01T06:03:54.938Z,49.27
2023-04-01T06:06:42.729Z,49.24
2023-04-01T06:09:30.589Z,45.84
2023-04-01T06:12:31.737Z,46.02
2023-04-01T06:15:30.475Z,43.42
2023-04-01T06:18:46.126Z,43.05
2023-04-01T06:21:59.854Z,43.81
2023-04-01T06:25:07.669Z,44.46
2023-04-01T06:28:13.232Z,44.96
2023-04-01T06:31:06.620Z,46.13
2023-04-01T06:34:17.438Z,45.76
2023-04-01T06:37:25.548Z,46.89
2023-04-01T06:40:36.769Z,46.88
2023-04-01T06:43:31.841Z,46.65
2023-04-01T06:46:27.659Z,47.06
2023-04-01T06:49:31.597Z,49.33
2023-04-01T06:52:31.843Z,50.38
2023-04-01T06:55:34.980Z,50.96
2023-04-01T06:58:30.034Z,51.27
2023-04-01T07:01:24.270Z,51.50
2023-04-01T07:04:19.367Z,52.56
2023-04-01T07:07:20.354Z,52.11
2023-04-01T07:10:16.968Z,51.83
2023-04-01T07:13:14.860Z,53.91
2023-04-01T07:16:11.662Z,54.56
2023-04-01T07:19:12.380Z,53.71
2023-04-01T07:22:05.977Z,54.24
2023-04-01T07:24:55.726Z,54.03
2023-04-01T07:27:46.989Z,54.40
2023-04-01T07:30:47.633Z,53.45
2023-04-01T07:33:46.744Z,54.65
2023-04-01T07:36:43.722Z,54.11
2023-04-01T07:39:43.844Z,55.29
2023-04-01T07:42:42.421Z,55.52
2023-04-01T07:45:39.577Z,54.10
2023-04-01T07:48:39.381Z,52.75
2023-04-01T07:51:35.738Z,52.25
2023-04-01T07:54:32.943Z,51.31
2023-04-01T07:57:24.879Z,50.80
2023-04-01T08:00:24.142Z,51.65
2023-04-01T08:03:36.760Z,50.82
2023-04-01T08:06:32.333Z,51.58
2023-04-01T08:09:32.503Z,51.05
2023-04-01T08:12:37.890Z,50.22
2023-04-01T08:15:29.872Z,49.81
2023-04-01T08:18:34.264Z,50.07
2023-04-01T08:21:27.958Z,49.61
2023-04-01T08:24:27.802Z,49.57
2023-04-01T08:27:26.037Z,48.29
2023-04-01T08:30:24.186Z,48.09
2023-04-01T08:33:19.428Z,46.50
2023-04-01T08:36:16.767Z,46.42
2023-04-01T08:39:17.196Z,47.35
2023-04-01T08:42:53.153Z,47.09
2023-04-01T08:46:05.637Z,46.10
2023-04-01T08:49:16.714Z,45.03
2023-04-01T08:52:39.306Z,44.88
2023-04-01T08:55:48.273Z,44.75
2023-04-01T08:59:04.477Z,44.58
2023-04-01T09:02:21.399Z,45.89
2023-04-01T09:05:41.741Z,45.13
2023-04-01T09:08:55.877Z,44.48
2023-04-01T09:12:02.846Z,44.59
2023-04-01T09:15:08.688Z,45.15
2023-04-01T09:18:18.398Z,42.96
2023-04-01T09:21:40.691Z,43.60
2023-04-01T09:24:44.325Z,42.82
2023-04-01T09:27:34.123Z,41.89
2023-04-01T09:30:46.314Z,42.71
2023-04-01T09:34:23.076Z,42.84
2023-04-01T09:37:33.406Z,41.87
2023-04-01T09:40:34.931Z,42.88
2023-04-01T09:43:31.361Z,42.37
2023-04-01T09:46:39.308Z,42.28
2023-04-01T09:50:05.169Z,43.10
2023-04-01T09:53:02.437Z,41.91
2023-04-01T09:56:26.412Z,42.29
2023-04-01T09:59:51.044Z,42.36
2023-04-01T10:03:17.151Z,42.22
2023-04-01T10:06:50.094Z,42.84
2023-04-01T10:10:09.060Z,43.79
2023-04-01T10:13:30.162Z,43.49
2023-04-01T10:16:56.381Z,43.94
2023-04-01T10:20:24.150Z,43.55
2023-04-01T10:23:34.295Z,43.98
2023-04-01T10:26:48.637Z,45.51
2023-04-01T10:30:04.890Z,44.29
2023-04-01T10:33:30.746Z,44.12
2023-04-01T10:36:51.184Z,43.73
2023-04-01T10:40:22.311Z,43.98
2023-04-01T10:43:56.941Z,44.32
2023-04-01T10:47:26.188Z,44.51
2023-04-01T10:50:38.664Z,44.26
2023-04-01T10:53:46.839Z,44.06
2023-04-01T10:56:51.603Z,44.85
2023-04-01T11:00:02.826Z,44.83
2023-04-01T11:03:29.650Z,45.05
2023-04-01T11:06:53.667Z,45.04
2023-04-01T11:10:45.879Z,45.68
2023-04-01T11:14:05.229Z,44.94
2023-04-01T11:17:33.652Z,45.14
2023-04-01T11:20:50.205Z,45.90
2023-04-01T11:24:04.960Z,46.57
2023-04-01T11:27:13.648Z,44.25
2023-04-01T11:30:15.923Z,43.70
2023-04-01T11:33:11.012Z,43.59
2023-04-01T11:36:27.159Z,42.30
2023-04-01T11:39:28.738Z,42.28
2023-04-01T11:42:39.297Z,41.07
2023-04-01T11:45:40.594Z,41.33
2023-04-01T11:48:45.923Z,46.02
2023-04-01T11:52:01.532Z,51.95
2023-04-01T11:55:08.521Z,55.14
2023-04-01T11:58:30.318Z,58.52
2023-04-01T12:01:40.425Z,64.62
2023-04-01T12:04:58.853Z,68.05
2023-04-01T12:08:06.466Z,70.71
2023-04-01T12:11:03.590Z,73.12
2023-04-01T12:13:59.550Z,73.13
2023-04-01T12:16:58.537Z,78.05
2023-04-01T12:19:52.824Z,77.19
2023-04-01T12:22:47.327Z,77.42
2023-04-01T12:26:01.208Z,79.43
2023-04-01T12:29:04.882Z,78.62
2023-04-01T12:32:00.138Z,77.60
2023-04-01T12:35:03.844Z,76.24
2023-04-01T12:37:56.647Z,76.48
2023-04-01T12:40:59.770Z,72.75
2023-04-01T12:44:12.340Z,76.48
2023-04-01T12:47:18.489Z,76.76
2023-04-01T12:50:47.751Z,78.33
2023-04-01T12:53:48.778Z,78.95
2023-04-01T12:56:44.176Z,78.75
2023-04-01T13:00:10.177Z,79.13
2023-04-01T13:03:11.842Z,79.36
2023-04-01T13:06:32.039Z,80.91
2023-04-01T13:09:33.957Z,80.85
2023-04-01T13:12:59.706Z,82.31
2023-04-01T13:15:53.668Z,81.72
2023-04-01T13:18:52.176Z,78.83
2023-04-01T13:21:46.845Z,74.27
2023-04-01T13:24:47.108Z,62.71
2023-04-01T13:27:37.414Z,61.07
2023-04-01T13:30:29.025Z,59.41
2023-04-01T13:33:22.377Z,60.85
2023-04-01T13:36:19.522Z,59.43
2023-04-01T13:39:21.074Z,58.18
2023-04-01T13:42:18.789Z,60.65
2023-04-01T13:45:12.972Z,61.98
2023-04-01T13:48:33.206Z,54.65
2023-04-01T13:51:42.548Z,55.79
2023-04-01T13:54:51.520Z,57.85
2023-04-01T13:57:57.531Z,59.85
2023-04-01T14:00:59.788Z,62.24
2023-04-01T14:04:43.772Z,64.24
2023-04-01T14:07:51.969Z,65.47
2023-04-01T14:10:43.052Z,65.99
2023-04-01T14:13:36.392Z,66.63
2023-04-01T14:16:56.805Z,66.60
2023-04-01T14:20:10.192Z,64.02
2023-04-01T14:23:20.367Z,64.88
2023-04-01T14:26:33.094Z,64.38
2023-04-01T14:29:30.025Z,65.13
2023-04-01T14:32:29.925Z,64.95
2023-04-01T14:35:29.761Z,64.95
2023-04-01T14:38:33.667Z,66.31
2023-04-01T14:41:33.947Z,65.68
2023-04-01T14:44:59.744Z,65.04
2023-04-01T14:47:55.661Z,64.78
2023-04-01T14:50:48.441Z,64.83
2023-04-01T14:53:40.136Z,65.69
2023-04-01T14:56:39.272Z,65.94
2023-04-01T14:59:34.691Z,67.28
2023-04-01T15:02:54.351Z,66.53
2023-04-01T15:05:54.779Z,67.83
2023-04-01T15:08:57.183Z,68.38
2023-04-01T15:11:58.698Z,68.02
2023-04-01T15:15:07.950Z,69.81
2023-04-01T15:18:10.242Z,68.19
2023-04-01T15:21:24.256Z,67.96
2023-04-01T15:24:19.682Z,70.04
2023-04-01T15:27:23.781Z,73.43
2023-04-01T15:30:26.006Z,70.72
2023-04-01T15:33:42.681Z,70.81
2023-04-01T15:36:42.652Z,72.26
2023-04-01T15:39:43.600Z,73.55
2023-04-01T15:42:54.321Z,72.16
2023-04-01T15:45:51.002Z,70.74
2023-04-01T15:48:52.616Z,71.18
2023-04-01T15:51:53.238Z,71.17
2023-04-01T15:55:13.244Z,71.84
2023-04-01T15:58:25.562Z,74.65
2023-04-01T16:01:26.374Z,67.46
2023-04-01T16:04:27.477Z,66.78
2023-04-01T16:07:30.116Z,68.39
2023-04-01T16:10:45.359Z,72.87
2023-04-01T16:13:52.071Z,76.23
2023-04-01T16:16:50.307Z,76.46
2023-04-01T16:19:44.259Z,77.96
2023-04-01T16:22:37.519Z,79.66
2023-04-01T16:25:33.876Z,79.94
2023-04-01T16:28:29.934Z,82.19
2023-04-01T16:31:25.808Z,82.86
2023-04-01T16:34:23.261Z,84.47
2023-04-01T16:37:14.396Z,85.18
2023-04-01T16:40:20.642Z,85.21
2023-04-01T16:43:18.222Z,84.59
2023-04-01T16:46:45.704Z,82.95
2023-04-01T16:49:42.211Z,82.76
2023-04-01T16:53:09.360Z,83.77
2023-04-01T16:56:04.900Z,83.69
2023-04-01T16:59:05.168Z,83.75
2023-04-01T17:01:59.540Z,82.14
2023-04-01T17:04:49.840Z,81.86
2023-04-01T17:07:50.283Z,82.72
2023-04-01T17:10:50.642Z,82.03
2023-04-01T17:13:44.453Z,82.86
2023-04-01T17:16:57.790Z,82.25
2023-04-01T17:20:01.941Z,81.97
2023-04-01T17:22:57.383Z,81.38
2023-04-01T17:26:06.495Z,82.79
2023-04-01T17:28:56.492Z,81.95
2023-04-01T17:31:57.036Z,81.79
2023-04-01T17:35:06.827Z,81.94
2023-04-01T17:38:02.343Z,81.33
2023-04-01T17:41:04.353Z,80.74
2023-04-01T17:44:04.155Z,81.46
2023-04-01T17:47:11.312Z,80.66
2023-04-01T17:50:11.085Z,80.79
2023-04-01T17:53:14.917Z,80.64
2023-04-01T17:56:12.193Z,77.71
2023-04-01T17:59:07.041Z,77.46
2023-04-01T18:02:06.555Z,78.04
2023-04-01T18:05:16.679Z,78.81
2023-04-01T18:08:30.936Z,78.04
2023-04-01T18:11:25.252Z,79.61
2023-04-01T18:14:36.103Z,80.30
2023-04-01T18:17:36.739Z,80.39
2023-04-01T18:20:39.830Z,80.83
2023-04-01T18:23:39.025Z,80.48
2023-04-01T18:26:28.764Z,78.73
2023-04-01T18:29:27.409Z,80.62
2023-04-01T18:32:29.117Z,79.92
2023-04-01T18:35:29.986Z,77.63
2023-04-01T18:38:17.488Z,79.52
2023-04-01T18:41:17.725Z,80.22
2023-04-01T18:44:20.504Z,79.99
2023-04-01T18:47:17.960Z,80.58
2023-04-01T18:50:15.263Z,79.80
2023-04-01T18:53:17.473Z,80.47
2023-04-01T18:56:06.221Z,79.26
2023-04-01T18:58:59.009Z,79.91
2023-04-01T19:01:54.412Z,81.03
2023-04-01T19:04:43.209Z,78.42
2023-04-01T19:07:51.064Z,80.27
2023-04-01T19:10:50.489Z,80.32
2023-04-01T19:13:46.333Z,78.42
2023-04-01T19:16:53.249Z,77.62
2023-04-01T19:20:01.776Z,77.63
2023-04-01T19:23:05.554Z,77.25
2023-04-01T19:25:54.208Z,76.75
2023-04-01T19:28:47.213Z,75.24
2023-04-01T19:31:50.498Z,75.78
2023-04-01T19:34:50.567Z,75.01
2023-04-01T19:37:41.936Z,74.31
2023-04-01T19:40:40.348Z,74.26
2023-04-01T19:43:38.753Z,73.13
2023-04-01T19:46:33.266Z,71.29
2023-04-01T19:49:31.932Z,72.84
2023-04-01T19:52:22.965Z,72.13
2023-04-01T19:55:18.710Z,72.13
2023-04-01T19:58:09.108Z,72.40
2023-04-01T20:01:02.327Z,71.99
2023-04-01T20:03:54.741Z,71.73
2023-04-01T20:06:49.901Z,72.08
2023-04-01T20:09:59.326Z,70.58
2023-04-01T20:12:55.985Z,69.93
2023-04-01T20:15:45.462Z,70.34
2023-04-01T20:18:41.006Z,70.41
2023-04-01T20:21:42.792Z,70.55
2023-04-01T20:24:38.222Z,70.44
2023-04-01T20:27:30.036Z,70.36
2023-04-01T20:30:55.456Z,70.32
2023-04-01T20:34:08.741Z,68.19
2023-04-01T20:37:04.748Z,68.99
2023-04-01T20:40:35.523Z,69.95
2023-04-01T20:43:45.285Z,69.59
2023-04-01T20:46:42.736Z,69.95
2023-04-01T20:49:45.999Z,69.57
2023-04-01T20:52:40.630Z,70.88
2023-04-01T20:56:05.992Z,70.69
2023-04-01T20:58:58.320Z,69.64
2023-04-01T21:01:55.073Z,70.86
2023-04-01T21:05:01.734Z,70.57
2023-04-01T21:07:56.351Z,69.19
2023-04-01T21:10:47.071Z,71.01
2023-04-01T21:13:49.322Z,71.95
2023-04-01T21:16:47.784Z,71.17
2023-04-01T21:19:49.693Z,71.07
2023-04-01T21:22:57.628Z,70.84
2023-04-01T21:25:57.576Z,70.54
2023-04-01T21:29:06.730Z,69.33
2023-04-01T21:32:04.531Z,69.24
2023-04-01T21:35:02.260Z,67.73
2023-04-01T21:37:59.310Z,68.83
2023-04-01T21:41:09.418Z,66.79
2023-04-01T21:44:30.084Z,68.40
2023-04-01T21:48:03.478Z,67.72
2023-04-01T21:51:05.523Z,67.84
2023-04-01T21:54:34.595Z,68.62
2023-04-01T21:57:55.526Z,69.16
2023-04-01T22:00:43.378Z,69.33
2023-04-01T22:03:55.797Z,70.04
2023-04-01T22:06:50.208Z,70.73
2023-04-01T22:09:44.173Z,71.50
2023-04-01T22:12:42.534Z,70.63
2023-04-01T22:15:39.771Z,71.65
2023-04-01T22:18:34.901Z,72.21
2023-04-01T22:21:29.520Z,72.74
2023-04-01T22:24:25.697Z,73.97
2023-04-01T22:27:20.279Z,74.71
2023-04-01T22:30:17.565Z,75.04
2023-04-01T22:33:09.045Z,76.41
2023-04-01T22:36:02.105Z,76.49
2023-04-01T22:39:11.576Z,77.96
2023-04-01T22:42:12.299Z,78.76
2023-04-01T22:45:07.741Z,78.11
2023-04-01T22:48:03.717Z,78.55
2023-04-01T22:50:57.558Z,76.84
2023-04-01T22:54:00.122Z,77.87
2023-04-01T22:56:49.928Z,76.77
2023-04-01T22:59:43.657Z,74.89
2023-04-01T23:02:32.226Z,73.42
2023-04-01T23:05:21.791Z,69.78
2023-04-01T23:08:27.607Z,69.20
2023-04-01T23:11:19.199Z,68.24
2023-04-01T23:14:27.348Z,68.01
2023-04-01T23:17:35.761Z,67.74
2023-04-01T23:20:33.530Z,66.38
2023-04-01T23:23:34.085Z,67.73
2023-04-01T23:26:26.487Z,67.05
2023-04-01T23:29:18.203Z,66.07
2023-04-01T23:32:06.170Z,65.69
2023-04-01T23:34:56.524Z,66.69
2023-04-01T23:37:41.994Z,66.56
2023-04-01T23:40:28.417Z,66.77
2023-04-01T23:43:18.567Z,66.29
2023-04-01T23:46:09.025Z,67.15
2023-04-01T23:48:55.194Z,65.41
2023-04-01T23:51:54.178Z,66.60
2023-04-01T23:54:48.825Z,66.14
2023-04-01T23:57:37.544Z,65.58
